createdAt,value
2023-05-11T00:01:06.551Z,96372.78
2023-05-11T00:03:34.503Z,96367.81
2023-05-11T00:06:04.592Z,96374.75
2023-05-11T00:08:32.425Z,96373.72
2023-05-11T00:11:01.708Z,96367.06
2023-05-11T00:13:30.065Z,96358.72
2023-05-11T00:15:58.082Z,96368.81
2023-05-11T00:18:26.112Z,96361.50
2023-05-11T00:20:54.096Z,96368.59
2023-05-11T00:23:21.876Z,96355.09
2023-05-11T00:25:49.636Z,96349.19
2023-05-11T00:28:18.759Z,96363.00
2023-05-11T00:30:46.625Z,96353.97
2023-05-11T00:33:14.699Z,96348.53
2023-05-11T00:35:43.016Z,96337.38
2023-05-11T00:38:10.953Z,96357.94
2023-05-11T00:40:40.930Z,96348.75
2023-05-11T00:43:11.598Z,96336.88
2023-05-11T00:45:41.015Z,96346.88
2023-05-11T00:48:09.086Z,96354.06
2023-05-11T00:50:37.215Z,96351.75
2023-05-11T00:53:04.952Z,96344.31
2023-05-11T00:55:32.733Z,96340.84
2023-05-11T00:58:00.940Z,96346.13
2023-05-11T01:00:28.921Z,96347.25
2023-05-11T01:02:58.895Z,96334.44
2023-05-11T01:05:31.311Z,96347.19
2023-05-11T01:08:04.954Z,96344.06
2023-05-11T01:10:38.929Z,96354.41
2023-05-11T01:13:17.811Z,96337.13
2023-05-11T01:15:51.945Z,96363.63
2023-05-11T01:18:27.448Z,96347.25
2023-05-11T01:21:01.757Z,96330.84
2023-05-11T01:23:57.860Z,96333.88
2023-05-11T01:27:00.545Z,96349.53
2023-05-11T01:29:51.265Z,96345.97
2023-05-11T01:32:27.027Z,96336.56
2023-05-11T01:35:03.753Z,96355.84
2023-05-11T01:37:33.208Z,96342.47
2023-05-11T01:40:04.864Z,96347.47
2023-05-11T01:42:36.907Z,96332.47
2023-05-11T01:45:05.258Z,96345.00
2023-05-11T01:47:35.876Z,96337.56
2023-05-11T01:50:07.812Z,96336.41
2023-05-11T01:52:39.577Z,96334.22
2023-05-11T01:55:10.243Z,96343.50
2023-05-11T01:57:39.721Z,96338.16
2023-05-11T02:00:09.746Z,96334.56
2023-05-11T02:02:39.894Z,96333.50
2023-05-11T02:05:08.805Z,96287.44
2023-05-11T02:07:39.107Z,96331.81
2023-05-11T02:10:08.597Z,96338.06
2023-05-11T02:12:37.399Z,96325.06
2023-05-11T02:15:08.820Z,96347.97
2023-05-11T02:17:39.617Z,96336.78
2023-05-11T02:20:10.348Z,96316.47
2023-05-11T02:22:39.200Z,96335.28
2023-05-11T02:25:10.827Z,96330.31
2023-05-11T02:27:38.845Z,96340.63
2023-05-11T02:30:08.711Z,96336.00
2023-05-11T02:32:40.136Z,96341.34
2023-05-11T02:35:12.550Z,96304.63
2023-05-11T02:37:44.495Z,96345.28
2023-05-11T02:40:26.253Z,96335.16
2023-05-11T02:43:00.034Z,96326.22
2023-05-11T02:45:36.650Z,96325.06
2023-05-11T02:48:09.977Z,96327.84
2023-05-11T02:50:40.563Z,96323.19
2023-05-11T02:53:16.968Z,96327.25
2023-05-11T02:55:45.265Z,96327.63
2023-05-11T02:58:13.198Z,96326.13
2023-05-11T03:00:41.120Z,96319.25
2023-05-11T03:03:10.724Z,96326.13
2023-05-11T03:05:38.510Z,96316.09
2023-05-11T03:08:06.491Z,96298.00
2023-05-11T03:10:34.381Z,96326.13
2023-05-11T03:13:03.820Z,96318.19
2023-05-11T03:15:32.136Z,96321.09
2023-05-11T03:18:03.340Z,96303.75
2023-05-11T03:20:35.038Z,96307.50
2023-05-11T03:23:05.544Z,96310.72
2023-05-11T03:25:33.581Z,96319.00
2023-05-11T03:28:02.550Z,96307.97
2023-05-11T03:30:31.091Z,96296.03
2023-05-11T03:32:58.831Z,96314.78
2023-05-11T03:35:28.688Z,96316.34
2023-05-11T03:38:00.589Z,96314.69
2023-05-11T03:40:31.603Z,96311.81
2023-05-11T03:43:00.327Z,96299.13
2023-05-11T03:45:31.436Z,96293.56
2023-05-11T03:48:00.616Z,96307.16
2023-05-11T03:50:29.113Z,96308.09
2023-05-11T03:52:59.150Z,96298.56
2023-05-11T03:55:27.750Z,96309.34
2023-05-11T03:57:55.572Z,96303.91
2023-05-11T04:00:23.468Z,96306.47
2023-05-11T04:02:51.549Z,96296.69
2023-05-11T04:05:19.492Z,96303.66
2023-05-11T04:07:47.502Z,96295.88
2023-05-11T04:10:16.935Z,96302.63
2023-05-11T04:12:44.812Z,96301.81
2023-05-11T04:15:12.731Z,96297.13
2023-05-11T04:17:40.547Z,96300.31
2023-05-11T04:20:09.318Z,96303.41
2023-05-11T04:22:37.082Z,96297.41
2023-05-11T04:25:05.376Z,96292.50
2023-05-11T04:27:35.507Z,96291.09
2023-05-11T04:30:03.504Z,96289.44
2023-05-11T04:32:31.463Z,96284.16
2023-05-11T04:35:00.588Z,96287.25
2023-05-11T04:37:28.396Z,96288.41
2023-05-11T04:39:56.245Z,96288.75
2023-05-11T04:42:24.033Z,96290.63
2023-05-11T04:44:55.369Z,96285.38
2023-05-11T04:47:23.430Z,96285.03
2023-05-11T04:49:52.002Z,96258.47
2023-05-11T04:52:19.820Z,96282.22
2023-05-11T04:54:47.694Z,96289.75
2023-05-11T04:57:15.546Z,96261.81
2023-05-11T04:59:43.547Z,96284.53
2023-05-11T05:02:13.080Z,96285.13
2023-05-11T05:04:40.836Z,96288.38
2023-05-11T05:07:09.220Z,96299.66
2023-05-11T05:09:37.029Z,96289.97
2023-05-11T05:12:05.145Z,96302.50
2023-05-11T05:14:33.197Z,96278.25
2023-05-11T05:17:01.568Z,96293.28
2023-05-11T05:19:30.715Z,96284.50
2023-05-11T05:21:58.463Z,96300.63
2023-05-11T05:24:26.691Z,96302.16
2023-05-11T05:26:54.431Z,96277.50
2023-05-11T05:29:22.245Z,96290.69
2023-05-11T05:31:50.108Z,96294.88
2023-05-11T05:34:17.918Z,96276.56
2023-05-11T05:36:47.094Z,96303.19
2023-05-11T05:39:14.858Z,96281.69
2023-05-11T05:41:43.116Z,96290.28
2023-05-11T05:44:10.879Z,96297.47
2023-05-11T05:46:38.842Z,96290.41
2023-05-11T05:49:06.739Z,96294.66
2023-05-11T05:51:34.539Z,96302.31
2023-05-11T05:54:03.632Z,96286.03
2023-05-11T05:56:31.964Z,96297.88
2023-05-11T05:58:59.721Z,96283.25
2023-05-11T06:01:27.712Z,96276.09
2023-05-11T06:03:56.524Z,96294.16
2023-05-11T06:06:24.470Z,96295.28
2023-05-11T06:08:52.224Z,96291.00
2023-05-11T06:11:21.768Z,96284.06
2023-05-11T06:13:49.524Z,96285.19
2023-05-11T06:16:17.378Z,96279.13
2023-05-11T06:18:45.106Z,96309.88
2023-05-11T06:21:12.846Z,96301.16
2023-05-11T06:23:40.612Z,96245.47
2023-05-11T06:26:08.335Z,96276.16
2023-05-11T06:28:37.483Z,96290.38
2023-05-11T06:31:05.598Z,96295.72
2023-05-11T06:33:33.326Z,96287.25
2023-05-11T06:36:05.395Z,96284.09
2023-05-11T06:38:33.237Z,96293.53
2023-05-11T06:41:00.953Z,96295.13
2023-05-11T06:43:28.939Z,96284.56
2023-05-11T06:45:58.085Z,96288.31
2023-05-11T06:48:26.000Z,96284.66
2023-05-11T06:50:53.813Z,96287.22
2023-05-11T06:53:21.540Z,96276.84
2023-05-11T06:55:49.545Z,96276.44
2023-05-11T06:58:20.554Z,96268.81
2023-05-11T07:00:48.466Z,96261.91
2023-05-11T07:03:17.914Z,96263.72
2023-05-11T07:05:45.990Z,96271.53
2023-05-11T07:08:13.784Z,96265.25
2023-05-11T07:10:42.592Z,96258.47
2023-05-11T07:13:11.138Z,96273.41
2023-05-11T07:15:38.894Z,96273.06
2023-05-11T07:18:06.797Z,96270.84
2023-05-11T07:20:36.648Z,96264.66
2023-05-11T07:23:04.548Z,96264.31
2023-05-11T07:25:32.412Z,96274.88
2023-05-11T07:28:00.193Z,96264.94
2023-05-11T07:30:27.951Z,96267.44
2023-05-11T07:32:55.722Z,96275.16
2023-05-11T07:35:24.347Z,96284.00
2023-05-11T07:37:53.594Z,96225.75
2023-05-11T07:40:21.750Z,96281.66
2023-05-11T07:42:49.614Z,96276.28
2023-05-11T07:45:17.332Z,96262.97
2023-05-11T07:47:45.254Z,96272.84
2023-05-11T07:50:13.247Z,96264.78
2023-05-11T07:52:41.032Z,96271.53
2023-05-11T07:55:10.788Z,96265.19
2023-05-11T07:57:38.658Z,96283.25
2023-05-11T08:00:08.276Z,96278.28
2023-05-11T08:02:36.234Z,96265.50
2023-05-11T08:05:04.413Z,96267.56
2023-05-11T08:07:32.233Z,96254.78
2023-05-11T08:10:00.242Z,96267.00
2023-05-11T08:12:29.507Z,96264.72
2023-05-11T08:14:57.304Z,96248.19
2023-05-11T08:17:25.153Z,96252.59
2023-05-11T08:19:53.063Z,96253.13
2023-05-11T08:22:20.777Z,96252.63
2023-05-11T08:24:48.559Z,96260.03
2023-05-11T08:27:16.668Z,96250.28
2023-05-11T08:29:46.299Z,96233.56
2023-05-11T08:32:14.112Z,96257.72
2023-05-11T08:34:42.069Z,96238.66
2023-05-11T08:37:09.926Z,96253.81
2023-05-11T08:39:46.740Z,96254.66
2023-05-11T08:42:17.595Z,96251.13
2023-05-11T08:44:49.149Z,96250.75
2023-05-11T08:47:23.204Z,96248.97
2023-05-11T08:49:52.812Z,96245.72
2023-05-11T08:52:21.017Z,96242.50
2023-05-11T08:54:49.103Z,96239.25
2023-05-11T08:57:17.415Z,96227.16
2023-05-11T08:59:47.686Z,96234.69
2023-05-11T09:02:18.852Z,96232.97
2023-05-11T09:04:49.195Z,96215.53
2023-05-11T09:07:18.767Z,96216.56
2023-05-11T09:09:47.436Z,96209.56
2023-05-11T09:12:15.615Z,96218.53
2023-05-11T09:14:43.777Z,96221.66
2023-05-11T09:17:12.993Z,96207.75
2023-05-11T09:19:58.630Z,96205.25
2023-05-11T09:22:29.866Z,96197.84
2023-05-11T09:24:58.836Z,96209.59
2023-05-11T09:27:27.058Z,96207.34
2023-05-11T09:29:55.532Z,96205.19
2023-05-11T09:32:25.146Z,96202.63
2023-05-11T09:34:52.958Z,96201.88
2023-05-11T09:37:20.967Z,96195.59
2023-05-11T09:40:25.175Z,96182.53
2023-05-11T09:42:43.742Z,96193.91
2023-05-11T09:45:14.570Z,96190.84
2023-05-11T09:47:43.688Z,96180.25
2023-05-11T09:50:18.775Z,96182.59
2023-05-11T09:52:54.058Z,96188.63
2023-05-11T09:55:22.241Z,96169.69
2023-05-11T09:57:55.179Z,96169.31
2023-05-11T10:00:23.049Z,96180.34
2023-05-11T10:03:03.869Z,96184.50
2023-05-11T10:05:34.198Z,96179.97
2023-05-11T10:08:04.043Z,96166.78
2023-05-11T10:10:33.643Z,96178.84
2023-05-11T10:13:03.373Z,96186.97
2023-05-11T10:15:43.783Z,96178.31
2023-05-11T10:18:13.131Z,96178.91
2023-05-11T10:20:41.141Z,96176.72
2023-05-11T10:23:08.900Z,96180.19
2023-05-11T10:25:38.641Z,96171.28
2023-05-11T10:28:07.195Z,96184.22
2023-05-11T10:30:35.837Z,96178.72
2023-05-11T10:33:04.264Z,96180.22
2023-05-11T10:35:34.042Z,96157.09
2023-05-11T10:38:02.136Z,96187.84
2023-05-11T10:40:30.563Z,96173.94
2023-05-11T10:43:23.075Z,96173.81
2023-05-11T10:46:01.385Z,96187.38
2023-05-11T10:48:54.358Z,96185.84
2023-05-11T10:51:47.551Z,96191.00
2023-05-11T10:54:30.672Z,96175.13
2023-05-11T10:57:13.902Z,96179.13
2023-05-11T11:00:19.895Z,96170.66
2023-05-11T11:02:48.009Z,96172.63
2023-05-11T11:05:33.109Z,96179.06
2023-05-11T11:08:04.048Z,96176.56
2023-05-11T11:10:34.239Z,96183.69
2023-05-11T11:13:07.230Z,96180.00
2023-05-11T11:16:12.706Z,96180.91
2023-05-11T11:18:42.778Z,96180.25
2023-05-11T11:21:19.951Z,96185.47
2023-05-11T11:23:51.207Z,96188.66
2023-05-11T11:26:40.396Z,96185.88
2023-05-11T11:29:12.146Z,96180.84
2023-05-11T11:31:40.695Z,96178.31
2023-05-11T11:34:34.639Z,96188.09
2023-05-11T11:37:08.716Z,96182.91
2023-05-11T11:39:55.805Z,96172.72
2023-05-11T11:42:42.799Z,96173.56
2023-05-11T11:45:33.173Z,96183.56
2023-05-11T11:48:17.785Z,96157.50
2023-05-11T11:50:48.118Z,96185.22
2023-05-11T11:53:49.500Z,96191.78
2023-05-11T11:56:41.252Z,96197.03
2023-05-11T11:59:13.804Z,96201.34
2023-05-11T12:01:43.904Z,96198.50
2023-05-11T12:04:52.920Z,96205.13
2023-05-11T12:07:23.469Z,96184.25
2023-05-11T12:09:53.029Z,96201.34
2023-05-11T12:12:22.318Z,96189.94
2023-05-11T12:14:50.277Z,96191.81
2023-05-11T12:28:16.492Z,96173.38
2023-05-11T12:30:55.830Z,96193.22
2023-05-11T12:33:24.313Z,96180.59
2023-05-11T12:35:54.023Z,96176.00
2023-05-11T12:38:21.946Z,96181.66
2023-05-11T12:40:50.207Z,96176.84
2023-05-11T12:43:20.674Z,96106.53
2023-05-11T12:45:49.314Z,96170.25
2023-05-11T12:48:17.339Z,96172.25
2023-05-11T12:50:46.773Z,96169.03
2023-05-11T12:53:15.926Z,96165.91
2023-05-11T12:55:47.088Z,96156.25
2023-05-11T12:58:16.563Z,96151.41
2023-05-11T13:00:56.150Z,96162.91
2023-05-11T13:03:24.734Z,96155.13
2023-05-11T13:05:54.318Z,96148.13
2023-05-11T13:08:22.304Z,96140.63
2023-05-11T13:10:50.063Z,96148.16
2023-05-11T13:13:28.044Z,96144.16
2023-05-11T13:15:57.235Z,96145.47
2023-05-11T13:18:25.008Z,96147.59
2023-05-11T13:21:06.730Z,96152.41
2023-05-11T13:23:34.505Z,96147.97
2023-05-11T13:26:02.398Z,96137.97
2023-05-11T13:28:30.220Z,96140.34
2023-05-11T13:31:02.209Z,96141.16
2023-05-11T13:33:30.102Z,96139.28
2023-05-11T13:35:57.943Z,96124.56
2023-05-11T13:38:25.676Z,96135.78
2023-05-11T13:40:53.413Z,96142.53
2023-05-11T13:43:21.377Z,96136.63
2023-05-11T13:45:49.176Z,96131.28
2023-05-11T13:48:18.265Z,96140.47
2023-05-11T13:50:46.018Z,96131.28
2023-05-11T13:53:13.959Z,96120.84
2023-05-11T13:55:42.520Z,96128.25
2023-05-11T13:58:10.811Z,96127.75
2023-05-11T14:00:40.047Z,96130.72
2023-05-11T14:03:08.186Z,96120.81
2023-05-11T14:05:39.232Z,96108.38
2023-05-11T14:08:07.223Z,96109.38
2023-05-11T14:10:34.961Z,96104.28
2023-05-11T14:13:02.789Z,96092.09
2023-05-11T14:15:30.638Z,96102.53
2023-05-11T14:17:58.484Z,96096.63
2023-05-11T14:20:26.815Z,96096.91
2023-05-11T14:22:58.730Z,96095.13
2023-05-11T14:25:26.498Z,96082.69
2023-05-11T14:27:55.596Z,96092.91
2023-05-11T14:30:24.076Z,96094.78
2023-05-11T14:32:53.660Z,96079.78
2023-05-11T14:35:21.656Z,96071.94
2023-05-11T14:37:49.355Z,96074.81
2023-05-11T14:40:18.458Z,96086.31
2023-05-11T14:42:46.144Z,96078.00
2023-05-11T14:45:13.881Z,96072.59
2023-05-11T14:47:41.775Z,96079.00
2023-05-11T14:50:11.019Z,96070.47
2023-05-11T14:52:38.785Z,96073.16
2023-05-11T14:55:10.987Z,96075.31
2023-05-11T14:57:40.281Z,96071.50
2023-05-11T15:00:09.156Z,96062.16
2023-05-11T15:02:37.057Z,96062.25
2023-05-11T15:05:05.239Z,96065.13
2023-05-11T15:07:33.069Z,96067.47
2023-05-11T15:10:01.783Z,96058.88
2023-05-11T15:12:30.234Z,96064.84
2023-05-11T15:14:59.401Z,96065.91
2023-05-11T15:17:28.051Z,96064.00
2023-05-11T15:19:56.009Z,96068.69
2023-05-11T15:22:23.708Z,96067.44
2023-05-11T15:24:51.515Z,96065.44
2023-05-11T15:27:19.353Z,96069.53
2023-05-11T15:29:47.224Z,96053.53
2023-05-11T15:32:17.747Z,96073.66
2023-05-11T15:34:58.642Z,96070.53
2023-05-11T15:37:27.980Z,96074.63
2023-05-11T15:39:55.990Z,96076.44
2023-05-11T15:42:23.828Z,96070.41
2023-05-11T15:44:51.678Z,96076.97
2023-05-11T15:47:20.830Z,96081.09
2023-05-11T15:49:48.686Z,96078.38
2023-05-11T15:52:16.744Z,96084.06
2023-05-11T15:54:44.465Z,96080.28
2023-05-11T15:57:12.258Z,96084.00
2023-05-11T15:59:40.182Z,96084.84
2023-05-11T16:02:08.509Z,96082.44
2023-05-11T16:04:37.618Z,96085.66
2023-05-11T16:07:05.668Z,96082.44
2023-05-11T16:09:33.469Z,96090.56
2023-05-11T16:12:01.256Z,96087.56
2023-05-11T16:14:31.197Z,96094.56
2023-05-11T16:17:01.142Z,96086.75
2023-05-11T16:19:29.794Z,96089.97
2023-05-11T16:21:58.874Z,96089.41
2023-05-11T16:24:26.895Z,96087.78
2023-05-11T16:26:54.717Z,96089.66
2023-05-11T16:29:22.556Z,96087.50
2023-05-11T16:31:50.384Z,96094.44
2023-05-11T16:34:18.195Z,96097.03
2023-05-11T16:36:46.047Z,96089.69
2023-05-11T16:39:15.130Z,96095.72
2023-05-11T16:41:42.865Z,96101.19
2023-05-11T16:44:10.604Z,96098.44
2023-05-11T16:46:38.562Z,96096.69
2023-05-11T16:49:06.394Z,96095.13
2023-05-11T16:51:34.262Z,96098.78
2023-05-11T16:54:01.975Z,96096.03
2023-05-11T16:56:31.116Z,96107.22
2023-05-11T16:58:59.287Z,96109.41
2023-05-11T17:01:27.302Z,96112.94
2023-05-11T17:03:55.395Z,96108.66
2023-05-11T17:06:24.722Z,96107.84
2023-05-11T17:08:53.059Z,96089.22
2023-05-11T17:11:21.588Z,96092.03
2023-05-11T17:13:51.034Z,96099.81
2023-05-11T17:16:19.499Z,96112.63
2023-05-11T17:18:47.519Z,96107.84
2023-05-11T17:21:16.131Z,96104.34
2023-05-11T17:23:45.105Z,96108.94
2023-05-11T17:26:13.802Z,96104.34
2023-05-11T17:28:41.746Z,96112.88
2023-05-11T17:31:12.037Z,96111.84
2023-05-11T17:33:41.672Z,96099.94
2023-05-11T17:36:10.321Z,96123.88
2023-05-11T17:38:38.608Z,96114.63
2023-05-11T17:41:06.765Z,96125.41
2023-05-11T17:43:35.456Z,96121.63
2023-05-11T17:46:04.519Z,96115.03
2023-05-11T17:48:33.774Z,96115.84
2023-05-11T17:51:02.157Z,96119.63
2023-05-11T17:53:30.045Z,96126.72
2023-05-11T17:55:59.559Z,96128.31
2023-05-11T17:58:27.711Z,96127.03
2023-05-11T18:00:55.578Z,96115.50
2023-05-11T18:03:23.383Z,96126.72
2023-05-11T18:05:52.562Z,96132.88
2023-05-11T18:08:20.491Z,96125.09
2023-05-11T18:10:48.215Z,96134.25
2023-05-11T18:13:17.447Z,96134.25
2023-05-11T18:15:45.610Z,96138.91
2023-05-11T18:18:13.376Z,96140.00
2023-05-11T18:20:42.322Z,96135.47
2023-05-11T18:23:11.518Z,96112.31
2023-05-11T18:25:39.828Z,96135.19
2023-05-11T18:28:07.716Z,96116.69
2023-05-11T18:30:35.928Z,96145.28
2023-05-11T18:33:03.704Z,96151.28
2023-05-11T18:35:31.502Z,96147.97
2023-05-11T18:38:02.205Z,96147.34
2023-05-11T18:40:31.340Z,96143.59
2023-05-11T18:42:59.028Z,96142.00
2023-05-11T18:45:30.293Z,96146.75
2023-05-11T18:47:58.272Z,96152.44
2023-05-11T18:50:27.026Z,96141.63
2023-05-11T18:52:54.798Z,96141.06
2023-05-11T18:55:22.673Z,96147.16
2023-05-11T18:57:52.355Z,96154.97
2023-05-11T19:00:21.005Z,96147.09
2023-05-11T19:02:49.163Z,96137.69
2023-05-11T19:05:17.115Z,96153.59
2023-05-11T19:07:44.839Z,96158.13
2023-05-11T19:10:12.863Z,96167.09
2023-05-11T19:12:40.653Z,96164.94
2023-05-11T19:15:11.098Z,96156.59
2023-05-11T19:17:39.024Z,96163.47
2023-05-11T19:20:08.340Z,96163.97
2023-05-11T19:22:36.339Z,96161.84
2023-05-11T19:25:04.119Z,96150.09
2023-05-11T19:27:31.865Z,96167.66
2023-05-11T19:29:59.621Z,96158.16
2023-05-11T19:32:28.794Z,96165.28
2023-05-11T19:34:56.562Z,96168.47
2023-05-11T19:37:24.326Z,96170.03
2023-05-11T19:39:52.067Z,96174.88
2023-05-11T19:42:23.545Z,96173.72
2023-05-11T19:44:59.876Z,96173.25
2023-05-11T19:47:29.001Z,96178.19
2023-05-11T19:49:57.127Z,96179.16
2023-05-11T19:52:24.904Z,96176.72
2023-05-11T19:54:52.728Z,96180.53
2023-05-11T19:57:21.161Z,96180.72
2023-05-11T19:59:48.814Z,96179.84
2023-05-11T20:02:16.609Z,96191.41
2023-05-11T20:04:46.861Z,96186.63
2023-05-11T20:07:14.979Z,96184.44
2023-05-11T20:09:42.716Z,96199.06
2023-05-11T20:12:10.937Z,96197.78
2023-05-11T20:14:40.961Z,96180.81
2023-05-11T20:17:09.418Z,96185.75
2023-05-11T20:19:39.504Z,96204.84
2023-05-11T20:22:08.598Z,96192.84
2023-05-11T20:24:36.733Z,96199.81
2023-05-11T20:27:09.684Z,96179.50
2023-05-11T20:29:40.223Z,96185.75
2023-05-11T20:32:08.682Z,96177.47
2023-05-11T20:34:36.572Z,96193.78
2023-05-11T20:37:04.313Z,96187.88
2023-05-11T20:39:33.379Z,96190.31
2023-05-11T20:42:01.118Z,96195.34
2023-05-11T20:44:30.030Z,96193.78
2023-05-11T20:46:57.780Z,96194.84
2023-05-11T20:49:38.311Z,96196.63
2023-05-11T20:52:07.738Z,96196.44
2023-05-11T20:54:37.239Z,96190.03
2023-05-11T20:57:05.403Z,96187.31
2023-05-11T21:02:04.369Z,96165.41
2023-05-11T21:04:32.218Z,96186.72
2023-05-11T21:07:00.068Z,96164.13
2023-05-11T21:09:27.823Z,96187.41
2023-05-11T21:11:57.195Z,96190.72
2023-05-11T21:14:24.990Z,96191.19
2023-05-11T21:16:52.872Z,96196.06
2023-05-11T21:19:20.715Z,96176.59
2023-05-11T21:21:49.691Z,96179.75
2023-05-11T21:24:17.644Z,96194.53
2023-05-11T21:26:47.967Z,96192.41
2023-05-11T21:29:18.065Z,96190.16
2023-05-11T21:31:45.800Z,96196.16
2023-05-11T21:34:13.577Z,96179.59
2023-05-11T21:36:41.514Z,96199.31
2023-05-11T21:39:09.310Z,96195.50
2023-05-11T21:41:37.157Z,96190.22
2023-05-11T21:44:05.053Z,96184.13
2023-05-11T21:46:34.298Z,96194.69
2023-05-11T21:49:02.014Z,96203.22
2023-05-11T21:51:29.934Z,96198.28
2023-05-11T21:53:57.678Z,96197.38
2023-05-11T21:56:25.548Z,96195.19
2023-05-11T21:58:53.308Z,96191.53
2023-05-11T22:01:21.122Z,96196.78
2023-05-11T22:03:50.433Z,96194.91
2023-05-11T22:06:18.334Z,96196.78
2023-05-11T22:08:46.465Z,96189.47
2023-05-11T22:11:14.346Z,96197.59
2023-05-11T22:13:42.780Z,96199.56
2023-05-11T22:16:10.622Z,96197.22
2023-05-11T22:18:38.445Z,96192.34
2023-05-11T22:21:07.653Z,96200.69
2023-05-11T22:23:36.420Z,96199.72
2023-05-11T22:26:04.490Z,96193.84
2023-05-11T22:28:32.872Z,96188.66
2023-05-11T22:31:01.063Z,96191.41
2023-05-11T22:33:29.138Z,96186.22
2023-05-11T22:35:56.863Z,96189.06
2023-05-11T22:38:26.019Z,96201.38
2023-05-11T22:40:53.832Z,96184.09
2023-05-11T22:43:21.966Z,96194.22
2023-05-11T22:45:49.732Z,96197.72
2023-05-11T22:48:17.826Z,96181.13
2023-05-11T22:50:47.548Z,96183.06
2023-05-11T22:53:15.526Z,96191.09
2023-05-11T22:55:44.593Z,96181.44
2023-05-11T22:58:12.283Z,96185.41
2023-05-11T23:00:40.091Z,96183.81
2023-05-11T23:03:08.323Z,96179.97
2023-05-11T23:05:37.180Z,96175.97
2023-05-11T23:08:04.973Z,96178.09
2023-05-11T23:10:32.844Z,96184.00
2023-05-11T23:13:01.965Z,96186.19
2023-05-11T23:15:29.629Z,96181.63
2023-05-11T23:17:57.418Z,96176.06
2023-05-11T23:20:25.260Z,96173.78
2023-05-11T23:22:53.386Z,96169.34
2023-05-11T23:25:21.242Z,96176.84
2023-05-11T23:27:49.067Z,96168.34
2023-05-11T23:30:19.131Z,96163.97
2023-05-11T23:32:47.057Z,96151.19
2023-05-11T23:35:15.017Z,96161.09
2023-05-11T23:37:42.916Z,96165.38
2023-05-11T23:40:11.289Z,96169.44
2023-05-11T23:42:39.278Z,96172.84
2023-05-11T23:45:08.751Z,96159.75
2023-05-11T23:47:38.383Z,96180.97
2023-05-11T23:50:07.420Z,96182.81
2023-05-11T23:52:35.217Z,96176.19
2023-05-11T23:55:03.133Z,96178.34
2023-05-11T23:57:31.219Z,96169.41
2023-05-11T23:59:58.984Z,96158.13
